Flight Track Log - Related Links

Times and Time Zones

All times are in EDT time to prevent confusion due to time zone crossing. See the VRD905 flight status page for this flight to view local times or setup timezone preferences in your user account.

Time Position Orientation Groundspeed Altitude Reporting Facility
EDT Latitude Longitude Course Direction KTS MPH feet Rate Location/Type
Tue 05:35:14 PM 36.0756 -115.1658 270° West 151 174 3,400  Level Los Center
Tue 05:36:09 PM 36.0753 -115.2136 270° West 160 184 4,700 1,864 Climbing Los Center
Tue 05:41:21 PM 35.9150 -115.5570 270° West 351 404 14,800 2,017 Climbing FlightAware
Tue 05:42:03 PM 35.9090 -115.6820 267° West 378 435 16,600 2,203 Climbing FlightAware
Tue 05:42:40 PM 35.9050 -115.7660 267° West 396 456 17,700 1,562 Climbing FlightAware
Tue 05:43:16 PM 35.9020 -115.8490 267° West 412 474 18,500 1,500 Climbing FlightAware
Tue 05:44:04 PM 35.9090 -115.9620 274° West 432 497 19,800 1,658 Climbing FlightAware
Tue 05:44:32 PM 35.9380 -116.0190 302° West 443 510 20,600 1,200 Climbing FlightAware
Tue 05:45:14 PM 35.9960 -116.0850 317° Northwest 444 511 21,200 462 Climbing FlightAware
Tue 05:45:50 PM 36.0430 -116.1370 318° Northwest 444 511 21,200  Level FlightAware
Tue 05:46:26 PM 36.0900 -116.1890 318° Northwest 444 511 21,200  Level FlightAware
Tue 05:47:02 PM 36.1360 -116.2410 318° Northwest 444 511 21,200 3,243 Level FlightAware
Tue 05:47:40 PM 36.2280 -116.3540 315° West 467 537 25,200 3,760 Climbing FlightAware
Tue 05:48:17 PM 36.2880 -116.4240 317° Northwest 474 545 25,900 1,233 Climbing FlightAware
Tue 05:48:53 PM 36.3470 -116.4930 317° Northwest 480 552 26,700 1,147 Climbing FlightAware
Tue 05:49:25 PM 36.3990 -116.5530 317° Northwest 487 560 27,200 918 Climbing FlightAware
Tue 05:50:18 PM 36.4770 -116.6460 316° Northwest 483 556 28,000 539 Climbing FlightAware
Tue 05:50:54 PM 36.5260 -116.7050 316° Northwest 483 556 28,000  Level FlightAware
Tue 05:51:30 PM 36.5760 -116.7640 317° Northwest 483 556 28,000  Level FlightAware
Tue 05:52:06 PM 36.6250 -116.8230 316° Northwest 483 556 28,000  Level FlightAware
Tue 05:52:42 PM 36.6740 -116.8820 316° Northwest 483 556 28,000  Level FlightAware
Tue 05:53:18 PM 36.7230 -116.9410 316° Northwest 483 556 28,000 6,774 Level FlightAware
Tue 05:53:44 PM 36.8580 -116.9710 350° North 469 540 35,000 5,526 Climbing FlightAware
Tue 05:54:34 PM 36.9360 -117.0320 328° Northwest 469 540 35,000  Level FlightAware
Tue 05:55:22 PM 37.0110 -117.0910 328° Northwest 469 540 35,000  Level FlightAware
Tue 05:55:58 PM 37.0670 -117.1350 328° Northwest 469 540 35,000 2,571 Level FlightAware
Tue 05:56:32 PM 37.1730 -117.2130 330° Northwest 467 537 38,000 2,571 Climbing FlightAware
Tue 05:57:08 PM 37.2390 -117.2640 328° Northwest 467 537 38,000  Level FlightAware
Tue 05:57:45 PM 37.3060 -117.3210 326° Northwest 453 521 38,000  Level FlightAware
Tue 05:58:30 PM 37.3550 -117.3970 309° West 441 507 38,000  Level FlightAware
Tue 05:58:36 PM 37.3550 -117.4290 270° West 412 474 38,000  Level FlightAware
Tue 05:59:22 PM 37.3640 -117.5270 277° West 400 460 38,000  Level FlightAware
Tue 06:00:14 PM 37.3750 -117.6470 277° West 401 461 38,000  Level FlightAware
Tue 06:00:50 PM 37.3810 -117.7180 276° West 401 461 38,000  Level FlightAware
Tue 06:01:45 PM 37.3940 -117.8560 277° West 399 459 38,000  Level FlightAware
Tue 06:02:17 PM 37.4010 -117.9370 276° West 401 461 38,000  Level FlightAware
Tue 06:02:53 PM 37.4080 -118.0220 276° West 402 463 38,000  Level FlightAware
Tue 06:03:33 PM 37.4160 -118.1120 276° West 402 463 38,000  Level FlightAware
Tue 06:04:03 PM 37.4220 -118.1840 276° West 404 465 38,000  Level FlightAware
Tue 06:04:43 PM 37.4300 -118.2760 276° West 405 466 38,000 82 Level FlightAware
Tue 06:05:16 PM 37.4370 -118.3520 277° West 404 465 38,100  Climbing FlightAware
Tue 06:05:55 PM 37.4440 -118.4420 276° West 403 464 38,000 -82 Descending FlightAware
Tue 06:06:29 PM 37.4510 -118.5230 276° West 404 465 38,000  Level FlightAware
Tue 06:07:03 PM 37.4570 -118.6030 275° West 407 468 38,000  Level FlightAware
Tue 06:07:39 PM 37.4650 -118.6910 277° West 413 475 38,000  Level FlightAware
Tue 06:08:15 PM 37.4720 -118.7770 276° West 416 479 38,000  Level FlightAware
Tue 06:08:47 PM 37.4780 -118.8550 276° West 418 481 38,000 88 Level FlightAware
Tue 06:09:23 PM 37.4850 -118.9390 276° West 418 481 38,100 83 Climbing FlightAware
Tue 06:09:59 PM 37.4910 -119.0260 275° West 418 481 38,100 -88 Level FlightAware
Tue 06:10:31 PM 37.4980 -119.1030 277° West 418 481 38,000 -85 Descending FlightAware
Tue 06:11:10 PM 37.5050 -119.1950 276° West 415 478 38,000  Level FlightAware
Tue 06:11:41 PM 37.5100 -119.2640 275° West 414 476 38,000  Level FlightAware
Tue 06:12:20 PM 37.5180 -119.3650 276° West 413 475 38,000  Level FlightAware
Tue 06:12:53 PM 37.5240 -119.4450 275° West 412 474 38,000  Level FlightAware
Tue 06:13:29 PM 37.5300 -119.5300 275° West 411 473 38,000  Level FlightAware
Tue 06:14:05 PM 37.5370 -119.6170 276° West 411 473 38,000  Level FlightAware
Tue 06:14:29 PM 37.5410 -119.6740 275° West 411 473 38,000  Level FlightAware
Tue 06:15:05 PM 37.5470 -119.7600 275° West 411 473 38,000  Level FlightAware
Tue 06:15:43 PM 37.5530 -119.8500 275° West 411 473 38,000  Level FlightAware
Tue 06:16:19 PM 37.5600 -119.9370 276° West 410 472 38,000  Level FlightAware
Tue 06:16:51 PM 37.5650 -120.0110 275° West 410 472 38,000 -353 Level FlightAware
Tue 06:17:27 PM 37.5710 -120.0970 275° West 413 475 37,600 -1,583 Descending FlightAware
Tue 06:18:03 PM 37.5770 -120.1840 275° West 410 472 36,100 -2,647 Descending FlightAware
Tue 06:18:35 PM 37.5820 -120.2570 275° West 412 474 34,600 -3,273 Descending FlightAware
Tue 06:19:09 PM 37.5870 -120.3400 274° West 425 489 32,500 -3,750 Descending FlightAware
Tue 06:19:47 PM 37.5940 -120.4380 275° West 435 501 30,100 -3,923 Descending FlightAware
Tue 06:20:01 PM 37.5960 -120.4730 274° West 439 505 29,100 -3,217 Descending FlightAware
Tue 06:20:56 PM 37.6050 -120.6100 275° West 434 499 26,400 -2,905 Descending FlightAware
Tue 06:21:36 PM 37.6120 -120.7100 275° West 427 491 24,500 -2,743 Descending FlightAware
Tue 06:22:06 PM 37.6160 -120.7840 274° West 421 484 23,200 -2,188 Descending FlightAware
Tue 06:23:12 PM 37.6240 -120.9100 275° West 411 473 21,000 -2,467 Descending FlightAware
Tue 06:23:53 PM 37.6180 -121.0350 267° West 399 459 18,800 -2,883 Descending FlightAware
Tue 06:24:29 PM 37.6090 -121.1190 262° West 398 458 17,300 -2,333 Descending FlightAware
Tue 06:25:05 PM 37.5990 -121.2000 261° West 393 452 16,000 -2,327 Descending FlightAware
Tue 06:25:18 PM 37.5954 -121.2350 263° West 391 450 15,400 -2,400 Descending FlightAware
Tue 06:25:50 PM 37.5874 -121.3070 262° West 388 447 14,200 -2,190 Descending FlightAware
Tue 06:26:21 PM 37.5797 -121.3740 262° West 383 441 13,100 -2,066 Descending FlightAware
Tue 06:26:51 PM 37.5721 -121.4400 262° West 376 433 12,100 -1,452 Descending FlightAware
Tue 06:27:23 PM 37.5641 -121.5090 262° West 357 411 11,600 -857 Descending FlightAware
Tue 06:27:54 PM 37.5571 -121.5680 262° West 334 384 11,200 -610 Descending FlightAware
Tue 06:28:22 PM 37.5511 -121.6190 262° West 309 356 11,000 -529 Descending FlightAware
Tue 06:28:28 PM 37.5494 -121.6300 259° West 304 350 10,900 -1,200 Descending FlightAware
Tue 06:29:02 PM 37.5357 -121.6850 253° West 287 330 10,200 -1,529 Descending FlightAware
Tue 06:29:19 PM 37.5289 -121.7120 252° West 282 325 9,600 -1,941 Descending FlightAware
Tue 06:29:36 PM 37.5225 -121.7390 253° West 284 327 9,100 -2,063 Descending FlightAware
Tue 06:29:51 PM 37.5168 -121.7640 254° West 288 331 8,500 -1,742 Descending FlightAware
Tue 06:30:07 PM 37.5112 -121.7890 254° West 284 327 8,200 -968 Descending FlightAware
Tue 06:30:22 PM 37.5057 -121.8120 253° West 273 314 8,000 -581 Descending FlightAware
Tue 06:30:38 PM 37.5002 -121.8360 254° West 263 303 7,900 -188 Descending FlightAware
Tue 06:30:54 PM 37.4949 -121.8580 253° West 246 283 7,900  Level FlightAware
Tue 06:31:09 PM 37.4898 -121.8790 253° West 239 275 7,900  Level FlightAware
Tue 06:31:25 PM 37.4849 -121.9000 254° West 237 273 7,900  Level FlightAware
Tue 06:31:40 PM 37.4799 -121.9200 253° West 237 273 7,900 -387 Level FlightAware
Tue 06:31:56 PM 37.4751 -121.9400 253° West 235 270 7,700 -968 Descending FlightAware
Tue 06:32:11 PM 37.4702 -121.9600 253° West 236 272 7,400 -1,448 Descending FlightAware
Tue 06:32:25 PM 37.4658 -121.9780 253° West 236 272 7,000 -1,579 Descending FlightAware
Tue 06:32:30 PM 37.4644 -121.9850 256° West 236 272 6,900 -750 Descending FlightAware
Tue 06:32:33 PM 37.4640 -121.9890 263° West 238 274 6,900 -1,000 Level FlightAware
Tue 06:32:36 PM 37.4641 -121.9940 271° West 239 275 6,800 -2,000 Descending FlightAware
Tue 06:32:39 PM 37.4646 -121.9980 279° West 240 276 6,700 -2,000 Descending FlightAware
Tue 06:32:42 PM 37.4653 -122.0020 282° West 241 277 6,600 -1,714 Descending FlightAware
Tue 06:32:46 PM 37.4665 -122.0070 287° West 243 280 6,500 -1,500 Descending FlightAware
Tue 06:32:50 PM 37.4684 -122.0130 292° West 243 280 6,400 -1,200 Descending FlightAware
Tue 06:32:56 PM 37.4712 -122.0200 297° West 243 280 6,300 -1,143 Descending FlightAware
Tue 06:33:11 PM 37.4792 -122.0390 298° West 238 274 6,000 -1,333 Descending FlightAware
Tue 06:33:23 PM 37.4850 -122.0530 298° West 233 268 5,700 -1,636 Descending FlightAware
Tue 06:33:33 PM 37.4905 -122.0650 300° West 229 264 5,400 -1,636 Descending FlightAware
Tue 06:33:45 PM 37.4958 -122.0780 297° West 229 264 5,100 -1,750 Descending FlightAware
Tue 06:33:57 PM 37.5023 -122.0930 299° West 230 265 4,700 -1,778 Descending FlightAware
Tue 06:34:12 PM 37.5096 -122.1110 297° West 227 261 4,300 -1,688 Descending FlightAware
Tue 06:34:29 PM 37.5180 -122.1310 298° West 225 259 3,800 -1,875 Descending FlightAware
Tue 06:34:44 PM 37.5254 -122.1480 299° West 222 255 3,300 -1,800 Descending FlightAware
Tue 06:34:59 PM 37.5325 -122.1650 298° West 221 254 2,900 -1,655 Descending FlightAware
Tue 06:35:13 PM 37.5391 -122.1800 299° West 220 253 2,500 -1,655 Descending FlightAware
Tue 06:35:28 PM 37.5464 -122.1980 297° West 216 249 2,100 -1,304 Descending FlightAware
Tue 06:35:36 PM 37.5500 -122.2060 300° West 211 243 2,000 -1,000 Descending FlightAware
Tue 06:35:52 PM 37.5569 -122.2220 299° West 200 230 1,700 -750 Descending FlightAware
Tue 06:36:00 PM 37.5603 -122.2310 295° West 192 221 1,700  Level FlightAware
Tue 06:36:15 PM 37.5664 -122.2450 299° West 182 209 1,700  Level FlightAware
Tue 06:36:30 PM 37.5724 -122.2590 298° West 185 213 1,700 -621 Level FlightAware
Tue 06:36:44 PM 37.5781 -122.2730 297° West 187 215 1,400 -1,200 Descending FlightAware
Tue 06:37:00 PM 37.5841 -122.2870 298° West 174 200 1,100 -938 Descending FlightAware
Tue 06:37:16 PM 37.5898 -122.3010 297° West 159 183 900 -783 Descending FlightAware
Tue 06:37:46 PM 37.5993 -122.3230 299° West 149 171 500 -783 Descending FlightAware
Tue 06:38:02 PM 37.6039 -122.3340 298° West 131 151 300 -621 Descending FlightAware
Tue 06:38:15 PM 37.6074 -122.3430 296° West 125 144 200 -571 Descending FlightAware
Tue 06:38:23 PM 37.6095 -122.3480 298° West 121 139 100 -500 Descending FlightAware
Tue 06:38:27 PM 37.6106 -122.3500 305° West 120 138 100  Level FlightAware
Tue 06:38:52 PM 37.6170 -122.3650 298° West 105 121 -240 Descending FlightAware

Login

Don't have an account? Register now (free) for customized features, flight alerts, and more!